Time;durP1;ratioP1;P1;durP2;ratioP2;P2;SDS_P1;SDS_P2;PMS_P1;PMS_P2;Temp;Humidity;BMP_temperature;BMP_pressure;BME280_temperature;BME280_humidity;BME280_pressure;Samples;Min_cycle;Max_cycle;Signal;HPM_P1;HPM_P2
2024/01/29 00:00:39;;;;;;;12.67;5.47;;;;;;;;;;5074065;28;20070;-27
2024/01/29 00:03:04;;;;;;;12.35;5.55;;;;;;;;;;5074050;28;20329;-27
2024/01/29 00:05:29;;;;;;;13.57;5.80;;;;;;;;;;5074091;28;20024;-27
2024/01/29 00:07:54;;;;;;;10.67;5.23;;;;;;;;;;5073931;28;20113;-28
2024/01/29 00:10:21;;;;;;;11.93;6.03;;;;;;;;;;5074396;28;20334;-27
2024/01/29 00:12:47;;;;;;;10.07;5.55;;;;;;;;;;5074061;28;20254;-27
2024/01/29 00:15:12;;;;;;;9.43;5.20;;;;;;;;;;5074176;28;20122;-27
2024/01/29 00:17:37;;;;;;;11.52;5.80;;;;;;;;;;5074043;28;20091;-27
2024/01/29 00:20:03;;;;;;;9.87;5.27;;;;;;;;;;5073760;28;20016;-27
2024/01/29 00:22:28;;;;;;;8.25;5.32;;;;;;;;;;5074228;28;20243;-27
2024/01/29 00:24:54;;;;;;;11.60;5.53;;;;;;;;;;5074006;28;20027;-27
2024/01/29 00:27:19;;;;;;;8.53;5.10;;;;;;;;;;5074159;28;20024;-27
2024/01/29 00:29:44;;;;;;;8.93;5.20;;;;;;;;;;5073551;28;20606;-27
2024/01/29 00:32:09;;;;;;;9.63;5.38;;;;;;;;;;5073597;28;20279;-27
2024/01/29 00:34:34;;;;;;;9.05;5.55;;;;;;;;;;5073552;28;20016;-27
2024/01/29 00:37:00;;;;;;;10.37;5.00;;;;;;;;;;5073546;28;20028;-27
2024/01/29 00:39:26;;;;;;;10.13;5.40;;;;;;;;;;5073704;28;20308;-27
2024/01/29 00:41:51;;;;;;;10.65;5.28;;;;;;;;;;5073491;28;20460;-27
2024/01/29 00:44:17;;;;;;;9.32;5.00;;;;;;;;;;5073462;28;20545;-28
2024/01/29 00:46:42;;;;;;;11.13;5.63;;;;;;;;;;5073307;28;20066;-28
2024/01/29 00:49:07;;;;;;;10.45;5.10;;;;;;;;;;5073908;28;20017;-28
2024/01/29 00:51:33;;;;;;;9.43;5.22;;;;;;;;;;5073883;28;20031;-28
2024/01/29 00:53:58;;;;;;;9.43;5.25;;;;;;;;;;5074059;28;20365;-28
2024/01/29 00:56:23;;;;;;;9.77;5.55;;;;;;;;;;5073664;28;20025;-28
2024/01/29 00:58:48;;;;;;;9.93;5.50;;;;;;;;;;5073803;28;20027;-28
2024/01/29 01:01:14;;;;;;;14.18;5.50;;;;;;;;;;5073606;28;20527;-28
2024/01/29 01:03:39;;;;;;;10.88;5.88;;;;;;;;;;5073155;28;20045;-28
2024/01/29 01:06:04;;;;;;;9.73;5.47;;;;;;;;;;5073185;28;20021;-28
2024/01/29 01:08:29;;;;;;;9.43;5.55;;;;;;;;;;5073217;28;20342;-28
2024/01/29 01:10:54;;;;;;;10.87;5.80;;;;;;;;;;5073242;28;20017;-28
2024/01/29 01:13:19;;;;;;;12.02;5.70;;;;;;;;;;5073104;28;20317;-28
2024/01/29 01:15:45;;;;;;;11.53;5.90;;;;;;;;;;5073710;28;20016;-28
2024/01/29 01:18:10;;;;;;;10.00;5.50;;;;;;;;;;5074903;28;20297;-27
2024/01/29 01:20:35;;;;;;;9.20;5.60;;;;;;;;;;5077152;28;20250;-28
2024/01/29 01:23:01;;;;;;;10.68;5.63;;;;;;;;;;5077449;28;20266;-28
2024/01/29 01:25:26;;;;;;;11.57;5.82;;;;;;;;;;5077253;28;20047;-28
2024/01/29 01:27:53;;;;;;;12.50;5.60;;;;;;;;;;5077170;28;20484;-28
2024/01/29 01:30:19;;;;;;;11.38;5.47;;;;;;;;;;5077231;28;20019;-28
2024/01/29 01:32:44;;;;;;;9.95;5.50;;;;;;;;;;5077155;28;20107;-28
2024/01/29 01:35:09;;;;;;;14.77;5.20;;;;;;;;;;5077131;28;20531;-28
2024/01/29 01:37:34;;;;;;;10.82;5.47;;;;;;;;;;5077004;28;20085;-28
2024/01/29 01:39:59;;;;;;;8.98;5.78;;;;;;;;;;5076728;28;20109;-28
2024/01/29 01:42:25;;;;;;;11.00;5.60;;;;;;;;;;5077259;28;20024;-28
2024/01/29 01:44:50;;;;;;;11.27;5.88;;;;;;;;;;5076825;28;20032;-28
2024/01/29 01:47:15;;;;;;;10.93;5.90;;;;;;;;;;5076581;28;20070;-28
2024/01/29 01:49:40;;;;;;;9.13;5.50;;;;;;;;;;5076861;28;20421;-28
2024/01/29 01:52:06;;;;;;;10.27;5.40;;;;;;;;;;5076579;28;20414;-28
2024/01/29 01:54:32;;;;;;;10.63;5.78;;;;;;;;;;5076516;28;20024;-27
2024/01/29 01:56:57;;;;;;;10.77;5.80;;;;;;;;;;5076648;28;20025;-28
2024/01/29 01:59:22;;;;;;;10.98;5.88;;;;;;;;;;5076494;28;20024;-28
2024/01/29 02:01:49;;;;;;;12.23;6.07;;;;;;;;;;5076398;28;20032;-28
2024/01/29 02:04:14;;;;;;;10.40;5.53;;;;;;;;;;5076862;28;20025;-28
2024/01/29 02:06:39;;;;;;;11.15;5.72;;;;;;;;;;5076133;28;20044;-28
2024/01/29 02:09:05;;;;;;;10.02;5.60;;;;;;;;;;5076263;28;20048;-28
2024/01/29 02:11:30;;;;;;;10.65;5.88;;;;;;;;;;5076397;28;20103;-28
2024/01/29 02:13:56;;;;;;;10.07;5.83;;;;;;;;;;5076433;28;20040;-28
2024/01/29 02:16:21;;;;;;;11.27;6.05;;;;;;;;;;5076043;28;20270;-28
2024/01/29 02:18:46;;;;;;;11.43;6.00;;;;;;;;;;5075959;28;20017;-28
2024/01/29 02:21:12;;;;;;;13.32;6.05;;;;;;;;;;5076328;28;20028;-27
2024/01/29 02:23:37;;;;;;;12.20;5.88;;;;;;;;;;5076265;28;20043;-27
2024/01/29 02:26:02;;;;;;;9.95;5.43;;;;;;;;;;5075872;28;20024;-28
2024/01/29 02:28:27;;;;;;;8.63;5.47;;;;;;;;;;5075871;28;20074;-28
2024/01/29 02:30:53;;;;;;;11.55;5.30;;;;;;;;;;5075838;28;20012;-28
2024/01/29 02:33:19;;;;;;;13.15;5.90;;;;;;;;;;5076015;28;20074;-27
2024/01/29 02:35:45;;;;;;;8.77;5.63;;;;;;;;;;5076020;28;20023;-28
2024/01/29 02:38:10;;;;;;;10.40;5.25;;;;;;;;;;5075667;28;20029;-28
2024/01/29 02:40:35;;;;;;;11.93;5.63;;;;;;;;;;5075688;28;20024;-28
2024/01/29 02:43:01;;;;;;;11.63;6.17;;;;;;;;;;5075806;28;20073;-28
2024/01/29 02:45:26;;;;;;;9.93;5.45;;;;;;;;;;5074217;28;20279;-28
2024/01/29 02:47:51;;;;;;;9.13;5.47;;;;;;;;;;5075571;28;20017;-28
2024/01/29 02:50:16;;;;;;;13.87;5.50;;;;;;;;;;5076007;28;20258;-28
2024/01/29 02:52:41;;;;;;;9.20;5.40;;;;;;;;;;5075425;28;20251;-28
2024/01/29 02:55:06;;;;;;;11.43;5.57;;;;;;;;;;5075638;28;20254;-28
2024/01/29 02:57:32;;;;;;;9.10;5.47;;;;;;;;;;5075889;28;20025;-28
2024/01/29 02:59:57;;;;;;;12.43;6.25;;;;;;;;;;5075325;28;20022;-28
2024/01/29 03:02:22;;;;;;;11.20;5.87;;;;;;;;;;5075054;28;20083;-28
2024/01/29 03:04:47;;;;;;;8.52;5.38;;;;;;;;;;5074670;28;20263;-27
2024/01/29 03:07:12;;;;;;;9.98;5.70;;;;;;;;;;5073943;28;20024;-28
2024/01/29 03:09:38;;;;;;;8.70;5.63;;;;;;;;;;5074839;28;20059;-28
2024/01/29 03:12:03;;;;;;;12.48;5.80;;;;;;;;;;5074586;28;20364;-27
2024/01/29 03:14:28;;;;;;;12.00;5.60;;;;;;;;;;5074590;28;20486;-28
2024/01/29 03:16:53;;;;;;;9.90;5.63;;;;;;;;;;5074382;28;20028;-28
2024/01/29 03:19:20;;;;;;;14.32;5.80;;;;;;;;;;5075139;28;20016;-28
2024/01/29 03:21:45;;;;;;;10.40;5.97;;;;;;;;;;5074815;28;20490;-28
2024/01/29 03:24:10;;;;;;;12.43;6.00;;;;;;;;;;5075371;28;20016;-28
2024/01/29 03:26:36;;;;;;;10.18;6.15;;;;;;;;;;5074604;28;20623;-28
2024/01/29 03:29:01;;;;;;;9.68;5.45;;;;;;;;;;5074602;28;20056;-28
2024/01/29 03:31:26;;;;;;;10.33;5.77;;;;;;;;;;5074631;28;20020;-27
2024/01/29 03:33:51;;;;;;;11.70;6.45;;;;;;;;;;5074869;28;20785;-27
2024/01/29 03:36:16;;;;;;;11.23;5.70;;;;;;;;;;5074749;28;20372;-27
2024/01/29 03:38:42;;;;;;;9.35;5.80;;;;;;;;;;5074678;28;20267;-28
2024/01/29 03:41:07;;;;;;;11.15;5.82;;;;;;;;;;5073750;28;20028;-28
2024/01/29 03:43:32;;;;;;;14.60;6.18;;;;;;;;;;5074683;28;20027;-28
2024/01/29 03:45:58;;;;;;;10.63;5.80;;;;;;;;;;5074251;28;20497;-27
2024/01/29 03:48:23;;;;;;;13.88;6.20;;;;;;;;;;5074332;28;20008;-28
2024/01/29 03:50:48;;;;;;;10.53;5.93;;;;;;;;;;5074165;28;20019;-28
2024/01/29 03:53:13;;;;;;;13.53;6.07;;;;;;;;;;5072921;28;20270;-28
2024/01/29 03:55:38;;;;;;;13.00;6.47;;;;;;;;;;5074183;28;20334;-27
2024/01/29 03:58:04;;;;;;;11.67;6.03;;;;;;;;;;5074152;28;20255;-28
2024/01/29 04:00:30;;;;;;;11.55;6.40;;;;;;;;;;5074097;28;20259;-28
2024/01/29 04:02:55;;;;;;;10.77;5.90;;;;;;;;;;5073990;28;20045;-28
2024/01/29 04:05:20;;;;;;;13.20;5.90;;;;;;;;;;5074473;28;20537;-28
2024/01/29 04:07:46;;;;;;;9.97;6.10;;;;;;;;;;5073942;28;20013;-28
2024/01/29 04:10:11;;;;;;;12.63;6.13;;;;;;;;;;5074465;28;20243;-28
2024/01/29 04:12:36;;;;;;;10.98;6.15;;;;;;;;;;5073738;28;20269;-28
2024/01/29 04:15:01;;;;;;;10.43;5.75;;;;;;;;;;5074100;28;20405;-28
2024/01/29 04:17:27;;;;;;;9.50;5.53;;;;;;;;;;5073719;28;20379;-28
2024/01/29 04:19:52;;;;;;;12.52;6.50;;;;;;;;;;5074302;28;20017;-27
2024/01/29 04:22:17;;;;;;;10.90;6.30;;;;;;;;;;5073670;28;20032;-27
2024/01/29 04:24:42;;;;;;;12.07;6.60;;;;;;;;;;5073596;28;20751;-28
2024/01/29 04:27:07;;;;;;;13.03;6.37;;;;;;;;;;5074015;28;20279;-28
2024/01/29 04:29:32;;;;;;;11.10;6.18;;;;;;;;;;5073836;28;20737;-28
2024/01/29 04:31:58;;;;;;;11.93;5.83;;;;;;;;;;5074043;28;20074;-27
2024/01/29 04:34:23;;;;;;;13.15;5.70;;;;;;;;;;5074068;28;20661;-28
2024/01/29 04:36:48;;;;;;;10.67;6.13;;;;;;;;;;5073491;28;20024;-27
2024/01/29 04:39:13;;;;;;;12.20;6.17;;;;;;;;;;5074078;28;20270;-28
2024/01/29 04:41:38;;;;;;;12.67;6.33;;;;;;;;;;5073520;28;20577;-28
2024/01/29 04:44:03;;;;;;;16.27;6.00;;;;;;;;;;5074027;28;20255;-28
2024/01/29 04:46:29;;;;;;;13.05;6.57;;;;;;;;;;5073386;28;20052;-28
2024/01/29 04:48:54;;;;;;;11.38;6.03;;;;;;;;;;5073401;28;20017;-28
2024/01/29 04:51:20;;;;;;;11.13;6.47;;;;;;;;;;5073914;28;20020;-28
2024/01/29 04:53:45;;;;;;;12.07;6.65;;;;;;;;;;5073386;28;20721;-28
2024/01/29 04:56:10;;;;;;;10.80;6.82;;;;;;;;;;5073890;28;20107;-28
2024/01/29 04:58:35;;;;;;;11.03;6.60;;;;;;;;;;5073401;28;20460;-28
2024/01/29 05:01:01;;;;;;;10.13;6.13;;;;;;;;;;5073234;28;20247;-28
2024/01/29 05:03:26;;;;;;;11.15;6.03;;;;;;;;;;5073130;28;20051;-28
2024/01/29 05:05:51;;;;;;;12.63;6.10;;;;;;;;;;5073742;28;20027;-27
2024/01/29 05:08:18;;;;;;;12.07;6.50;;;;;;;;;;5073240;28;20251;-28
2024/01/29 05:10:43;;;;;;;10.98;6.22;;;;;;;;;;5073548;28;20025;-28
2024/01/29 05:13:09;;;;;;;14.38;6.68;;;;;;;;;;5073101;28;20020;-27
2024/01/29 05:15:35;;;;;;;11.40;7.00;;;;;;;;;;5073747;28;20032;-28
2024/01/29 05:18:00;;;;;;;10.68;6.32;;;;;;;;;;5073418;28;20794;-27
2024/01/29 05:20:25;;;;;;;14.38;6.65;;;;;;;;;;5073204;28;20475;-28
2024/01/29 05:22:50;;;;;;;15.03;6.30;;;;;;;;;;5073087;28;20021;-28
2024/01/29 05:25:16;;;;;;;11.23;6.18;;;;;;;;;;5073280;28;20258;-28
2024/01/29 05:27:41;;;;;;;13.97;6.60;;;;;;;;;;5073535;28;20078;-28
2024/01/29 05:30:06;;;;;;;13.30;6.57;;;;;;;;;;5073060;28;20293;-28
2024/01/29 05:32:31;;;;;;;12.00;6.32;;;;;;;;;;5073563;28;20262;-28
2024/01/29 05:34:57;;;;;;;11.02;6.70;;;;;;;;;;5072910;28;20410;-28
2024/01/29 05:37:22;;;;;;;13.15;6.85;;;;;;;;;;5072983;28;20126;-28
2024/01/29 05:39:47;;;;;;;11.23;6.60;;;;;;;;;;5072864;28;20013;-28
2024/01/29 05:42:13;;;;;;;11.10;6.30;;;;;;;;;;5073149;28;20081;-28
2024/01/29 05:44:38;;;;;;;10.02;6.05;;;;;;;;;;5072993;28;20632;-28
2024/01/29 05:47:03;;;;;;;11.32;6.40;;;;;;;;;;5072815;28;20024;-28
2024/01/29 05:49:28;;;;;;;13.15;6.82;;;;;;;;;;5072775;28;20024;-28
2024/01/29 05:51:53;;;;;;;11.60;6.47;;;;;;;;;;5073383;28;20025;-28
2024/01/29 05:54:18;;;;;;;11.10;6.68;;;;;;;;;;5072797;28;20712;-28
2024/01/29 05:56:45;;;;;;;10.90;6.65;;;;;;;;;;5072986;28;20512;-28
2024/01/29 05:59:10;;;;;;;13.70;7.05;;;;;;;;;;5072743;28;20067;-28
2024/01/29 06:01:35;;;;;;;11.65;6.65;;;;;;;;;;5072669;28;20028;-28
2024/01/29 06:04:00;;;;;;;11.23;6.13;;;;;;;;;;5073637;28;20048;-28
2024/01/29 06:06:27;;;;;;;12.48;6.50;;;;;;;;;;5076163;28;20020;-28
2024/01/29 06:08:52;;;;;;;12.43;6.70;;;;;;;;;;5076486;28;20013;-28
2024/01/29 06:11:17;;;;;;;12.63;7.10;;;;;;;;;;5076119;28;20353;-28
2024/01/29 06:13:42;;;;;;;13.15;6.55;;;;;;;;;;5076425;28;20302;-27
2024/01/29 06:16:07;;;;;;;12.00;6.70;;;;;;;;;;5076081;28;20024;-28
2024/01/29 06:18:33;;;;;;;13.32;6.60;;;;;;;;;;5076621;28;20312;-28
2024/01/29 06:20:58;;;;;;;12.87;6.70;;;;;;;;;;5076035;28;20380;-28
2024/01/29 06:23:24;;;;;;;12.75;6.65;;;;;;;;;;5076510;28;20346;-28
2024/01/29 06:25:49;;;;;;;12.83;6.80;;;;;;;;;;5076336;28;20028;-28
2024/01/29 06:28:14;;;;;;;11.45;6.85;;;;;;;;;;5076186;28;20801;-28
2024/01/29 06:30:40;;;;;;;12.32;7.72;;;;;;;;;;5076364;28;20021;-28
2024/01/29 06:33:05;;;;;;;11.65;6.57;;;;;;;;;;5075791;28;20073;-28
2024/01/29 06:35:30;;;;;;;11.27;6.63;;;;;;;;;;5075804;28;20093;-28
2024/01/29 06:37:55;;;;;;;11.40;6.80;;;;;;;;;;5075731;28;20251;-28
2024/01/29 06:40:26;;;;;;;12.10;7.00;;;;;;;;;;5076175;28;20254;-28
2024/01/29 06:42:52;;;;;;;12.43;7.13;;;;;;;;;;5075937;28;20126;-28
2024/01/29 06:45:17;;;;;;;12.30;6.97;;;;;;;;;;5075878;28;20446;-28
2024/01/29 06:47:42;;;;;;;13.15;6.60;;;;;;;;;;5075970;28;20024;-28
2024/01/29 06:50:07;;;;;;;11.77;7.00;;;;;;;;;;5075464;28;20027;-28
2024/01/29 06:52:33;;;;;;;11.82;6.68;;;;;;;;;;5075411;28;20741;-28
2024/01/29 06:55:00;;;;;;;13.27;7.30;;;;;;;;;;5075944;28;20019;-28
2024/01/29 06:57:25;;;;;;;15.18;7.10;;;;;;;;;;5075645;28;20266;-28
2024/01/29 06:59:50;;;;;;;11.63;7.00;;;;;;;;;;5075408;28;20478;-28
2024/01/29 07:02:16;;;;;;;12.70;7.13;;;;;;;;;;5075090;28;20415;-28
2024/01/29 07:04:42;;;;;;;13.70;7.25;;;;;;;;;;5075717;28;20104;-28
2024/01/29 07:07:07;;;;;;;12.75;6.93;;;;;;;;;;5075210;28;20451;-28
2024/01/29 07:09:33;;;;;;;15.18;7.43;;;;;;;;;;5075152;28;20023;-28
2024/01/29 07:11:58;;;;;;;13.15;7.15;;;;;;;;;;5075238;28;20104;-28
2024/01/29 07:14:23;;;;;;;15.38;7.10;;;;;;;;;;5075502;28;20112;-28
2024/01/29 07:16:48;;;;;;;12.27;7.07;;;;;;;;;;5073980;28;20082;-28
2024/01/29 07:19:13;;;;;;;14.00;7.37;;;;;;;;;;5075377;28;20338;-28
2024/01/29 07:21:41;;;;;;;14.98;7.63;;;;;;;;;;5073138;28;20263;-27
2024/01/29 07:24:06;;;;;;;13.57;7.00;;;;;;;;;;5072973;28;20020;-28
2024/01/29 07:26:32;;;;;;;12.20;7.15;;;;;;;;;;5073075;28;20066;-28
2024/01/29 07:28:58;;;;;;;17.85;7.05;;;;;;;;;;5073107;28;20019;-28
2024/01/29 07:31:23;;;;;;;12.63;6.65;;;;;;;;;;5073619;28;20464;-28
2024/01/29 07:33:50;;;;;;;13.88;6.90;;;;;;;;;;5073623;28;20378;-28
2024/01/29 07:36:15;;;;;;;12.07;7.00;;;;;;;;;;5074352;28;20459;-28
2024/01/29 07:38:40;;;;;;;14.53;7.03;;;;;;;;;;5075027;28;20023;-28
2024/01/29 07:41:05;;;;;;;14.40;7.07;;;;;;;;;;5075019;28;20286;-28
2024/01/29 07:43:30;;;;;;;12.88;7.57;;;;;;;;;;5074420;28;20516;-28
2024/01/29 07:45:56;;;;;;;14.17;7.50;;;;;;;;;;5074232;28;20062;-28
2024/01/29 07:48:21;;;;;;;14.23;7.20;;;;;;;;;;5074246;28;20270;-28
2024/01/29 07:50:46;;;;;;;14.45;7.82;;;;;;;;;;5073385;28;20051;-28
2024/01/29 07:53:11;;;;;;;13.60;6.73;;;;;;;;;;5073424;28;20091;-28
2024/01/29 07:55:36;;;;;;;12.57;7.30;;;;;;;;;;5072896;28;20266;-28
2024/01/29 07:58:02;;;;;;;10.50;6.77;;;;;;;;;;5074049;28;20255;-28
2024/01/29 08:00:27;;;;;;;14.00;6.97;;;;;;;;;;5074287;28;20327;-28
2024/01/29 08:02:52;;;;;;;12.93;6.80;;;;;;;;;;5074181;28;20128;-28
2024/01/29 08:05:17;;;;;;;15.30;7.80;;;;;;;;;;5073964;28;20649;-28
2024/01/29 08:07:42;;;;;;;13.27;7.15;;;;;;;;;;5074113;28;20289;-28
2024/01/29 08:10:08;;;;;;;14.03;7.67;;;;;;;;;;5073890;28;20063;-28
2024/01/29 08:12:33;;;;;;;13.23;6.97;;;;;;;;;;5074023;28;20661;-28
2024/01/29 08:14:58;;;;;;;15.70;7.40;;;;;;;;;;5073873;28;20016;-28
2024/01/29 08:17:23;;;;;;;14.25;7.75;;;;;;;;;;5073804;28;20300;-28
2024/01/29 08:19:49;;;;;;;18.73;7.90;;;;;;;;;;5074015;28;20372;-29
2024/01/29 08:22:14;;;;;;;15.75;8.27;;;;;;;;;;5074021;28;20079;-28
2024/01/29 08:24:39;;;;;;;13.48;7.13;;;;;;;;;;5073980;28;20467;-28
2024/01/29 08:27:04;;;;;;;11.73;7.10;;;;;;;;;;5073197;28;20492;-28
2024/01/29 08:29:30;;;;;;;14.77;7.55;;;;;;;;;;5073879;28;20376;-28
2024/01/29 08:31:55;;;;;;;14.13;8.10;;;;;;;;;;5073582;28;20484;-28
2024/01/29 08:34:20;;;;;;;16.77;7.03;;;;;;;;;;5074187;28;20028;-28
2024/01/29 08:36:45;;;;;;;12.77;7.50;;;;;;;;;;5073807;28;20751;-28
2024/01/29 08:39:11;;;;;;;14.33;7.87;;;;;;;;;;5073759;28;20103;-28
2024/01/29 08:41:36;;;;;;;12.97;8.13;;;;;;;;;;5073998;28;20263;-35
2024/01/29 08:44:03;;;;;;;12.93;7.30;;;;;;;;;;5073335;28;20296;-28
2024/01/29 08:46:28;;;;;;;12.25;6.85;;;;;;;;;;5073939;28;20027;-28
2024/01/29 08:48:53;;;;;;;13.48;7.85;;;;;;;;;;5072292;28;20013;-28
2024/01/29 08:51:18;;;;;;;13.30;7.63;;;;;;;;;;5073368;28;20025;-28
2024/01/29 08:53:43;;;;;;;16.17;7.60;;;;;;;;;;5073720;28;20341;-28
2024/01/29 08:56:09;;;;;;;18.97;7.83;;;;;;;;;;5073963;28;20258;-28
2024/01/29 08:58:34;;;;;;;14.70;7.65;;;;;;;;;;5073508;28;20751;-28
2024/01/29 09:00:59;;;;;;;12.73;7.50;;;;;;;;;;5073798;28;20016;-28
2024/01/29 09:03:24;;;;;;;13.23;7.80;;;;;;;;;;5073173;28;20784;-28
2024/01/29 09:05:50;;;;;;;14.63;8.90;;;;;;;;;;5073191;28;20459;-28
2024/01/29 09:08:15;;;;;;;13.05;7.43;;;;;;;;;;5073304;28;20028;-28
2024/01/29 09:10:40;;;;;;;12.87;7.80;;;;;;;;;;5071935;28;20452;-28
2024/01/29 09:13:05;;;;;;;13.98;7.90;;;;;;;;;;5073396;28;20251;-28
2024/01/29 09:15:31;;;;;;;11.75;7.22;;;;;;;;;;5073737;28;20082;-28
2024/01/29 09:17:56;;;;;;;12.20;7.57;;;;;;;;;;5073400;28;20016;-28
2024/01/29 09:20:22;;;;;;;15.00;7.37;;;;;;;;;;5073101;28;20247;-28
2024/01/29 09:22:47;;;;;;;13.57;7.53;;;;;;;;;;5073310;28;20254;-28
2024/01/29 09:25:13;;;;;;;19.08;8.38;;;;;;;;;;5073063;28;20468;-28
2024/01/29 09:27:38;;;;;;;15.07;7.60;;;;;;;;;;5072919;28;20027;-28
2024/01/29 09:30:06;;;;;;;12.97;7.90;;;;;;;;;;5072990;28;20017;-28
2024/01/29 09:32:31;;;;;;;15.68;8.23;;;;;;;;;;5073023;28;20741;-28
2024/01/29 09:34:56;;;;;;;17.43;8.37;;;;;;;;;;5072958;28;20012;-28
2024/01/29 09:37:22;;;;;;;13.90;8.10;;;;;;;;;;5073174;28;20266;-28
2024/01/29 09:39:47;;;;;;;13.23;8.37;;;;;;;;;;5075948;28;20251;-28
2024/01/29 09:42:19;;;;;;;15.18;8.00;;;;;;;;;;5076961;28;20795;-28
2024/01/29 09:44:45;;;;;;;14.60;7.88;;;;;;;;;;5077017;28;20048;-29
2024/01/29 09:47:10;;;;;;;15.52;7.85;;;;;;;;;;5076602;28;20021;-28
2024/01/29 09:49:37;;;;;;;15.32;8.27;;;;;;;;;;5076607;28;20066;-28
2024/01/29 09:52:04;;;;;;;14.95;8.38;;;;;;;;;;5076554;28;20016;-28
2024/01/29 09:54:29;;;;;;;10.93;7.78;;;;;;;;;;5076439;28;20013;-28
2024/01/29 09:56:54;;;;;;;14.43;7.37;;;;;;;;;;5077062;28;20024;-28
2024/01/29 09:59:19;;;;;;;14.93;7.93;;;;;;;;;;5076718;28;20792;-28
2024/01/29 10:01:44;;;;;;;11.30;7.07;;;;;;;;;;5076487;28;20304;-30
2024/01/29 10:04:10;;;;;;;12.80;7.28;;;;;;;;;;5076367;28;20059;-28
2024/01/29 10:06:35;;;;;;;11.17;7.00;;;;;;;;;;5076229;28;20112;-28
2024/01/29 10:09:00;;;;;;;10.50;6.88;;;;;;;;;;5076419;28;20027;-29
2024/01/29 10:11:26;;;;;;;12.30;7.32;;;;;;;;;;5076410;28;20443;-29
2024/01/29 10:13:57;;;;;;;11.45;7.07;;;;;;;;;;5076714;28;20017;-29
2024/01/29 10:16:22;;;;;;;9.10;6.47;;;;;;;;;;5076698;28;20026;-29
2024/01/29 10:18:55;;;;;;;13.30;7.17;;;;;;;;;;5076097;28;20371;-28
2024/01/29 10:21:20;;;;;;;;;;;;;;;;;;5076455;28;20048;-29
2024/01/29 10:23:53;;;;;;;12.38;6.72;;;;;;;;;;5076591;28;19908;-28
2024/01/29 10:26:19;;;;;;;13.00;6.63;;;;;;;;;;5075885;28;20070;-28
2024/01/29 10:28:44;;;;;;;10.15;6.60;;;;;;;;;;5076259;28;20368;-29
2024/01/29 10:31:09;;;;;;;12.05;6.63;;;;;;;;;;5075830;28;20040;-29
2024/01/29 10:33:35;;;;;;;10.40;6.93;;;;;;;;;;5076423;28;20063;-29
2024/01/29 10:36:01;;;;;;;10.33;6.97;;;;;;;;;;5076070;28;20035;-29
2024/01/29 10:38:26;;;;;;;9.35;6.55;;;;;;;;;;5076020;28;20108;-29
2024/01/29 10:40:53;;;;;;;10.30;6.95;;;;;;;;;;5075983;28;20483;-29
2024/01/29 10:43:21;;;;;;;10.23;6.90;;;;;;;;;;5075925;28;20020;-28
2024/01/29 10:45:49;;;;;;;10.45;6.60;;;;;;;;;;5075746;28;20021;-29
2024/01/29 10:48:21;;;;;;;13.75;6.63;;;;;;;;;;5075830;28;20017;-29
2024/01/29 10:50:47;;;;;;;9.85;6.78;;;;;;;;;;5075328;28;20017;-29
2024/01/29 10:53:13;;;;;;;9.68;6.93;;;;;;;;;;5075682;28;20008;-29
2024/01/29 10:55:39;;;;;;;11.63;6.88;;;;;;;;;;5075628;28;20044;-28
2024/01/29 10:58:04;;;;;;;10.35;7.07;;;;;;;;;;5075656;28;20016;-29
2024/01/29 11:00:31;;;;;;;10.38;7.13;;;;;;;;;;5075403;28;20025;-28
2024/01/29 11:02:58;;;;;;;11.15;7.35;;;;;;;;;;5075072;28;20056;-29
2024/01/29 11:05:23;;;;;;;12.02;7.18;;;;;;;;;;5075214;28;20481;-29
2024/01/29 11:07:49;;;;;;;13.60;7.55;;;;;;;;;;5075598;28;20064;-29
2024/01/29 11:10:19;;;;;;;13.23;7.65;;;;;;;;;;5075039;28;20043;-29
2024/01/29 11:12:45;;;;;;;14.68;7.45;;;;;;;;;;5074948;28;20048;-28
2024/01/29 11:15:11;;;;;;;11.85;7.53;;;;;;;;;;5075347;28;20388;-29
2024/01/29 11:17:36;;;;;;;12.27;6.97;;;;;;;;;;5075251;28;20021;-29
2024/01/29 11:20:08;;;;;;;15.00;7.43;;;;;;;;;;5075393;28;20100;-29
2024/01/29 11:22:37;;;;;;;11.13;7.60;;;;;;;;;;5075459;28;20030;-29
2024/01/29 11:25:12;;;;;;;11.93;7.47;;;;;;;;;;5074837;28;20480;-29
2024/01/29 11:27:38;;;;;;;11.18;7.43;;;;;;;;;;5074980;28;20099;-29
2024/01/29 11:30:13;;;;;;;12.15;7.80;;;;;;;;;;5074967;28;20514;-29
2024/01/29 11:32:40;;;;;;;12.00;7.90;;;;;;;;;;5074857;28;20025;-29
2024/01/29 11:35:13;;;;;;;16.13;8.05;;;;;;;;;;5075195;28;20020;-28
2024/01/29 11:37:39;;;;;;;14.38;8.23;;;;;;;;;;5074771;28;20020;-29
2024/01/29 11:40:04;;;;;;;14.18;8.95;;;;;;;;;;5074710;28;20361;-29
2024/01/29 11:42:30;;;;;;;14.95;8.48;;;;;;;;;;5074938;28;20345;-29
2024/01/29 11:44:55;;;;;;;18.45;8.60;;;;;;;;;;5074600;28;20021;-29
2024/01/29 11:47:22;;;;;;;14.63;8.63;;;;;;;;;;5074305;28;20020;-29
2024/01/29 11:49:48;;;;;;;16.63;8.95;;;;;;;;;;5074558;28;20020;-29
2024/01/29 11:52:13;;;;;;;14.67;8.50;;;;;;;;;;5074731;28;20020;-29
2024/01/29 11:54:38;;;;;;;14.80;8.75;;;;;;;;;;5072845;28;20555;-28
2024/01/29 11:57:03;;;;;;;16.40;8.88;;;;;;;;;;5074696;28;20020;-28
2024/01/29 11:59:29;;;;;;;14.43;8.95;;;;;;;;;;5074394;28;20426;-28
2024/01/29 12:01:54;;;;;;;14.63;8.90;;;;;;;;;;5072322;28;20024;-29
2024/01/29 12:04:19;;;;;;;18.70;8.90;;;;;;;;;;5073915;28;20302;-29
2024/01/29 12:06:44;;;;;;;14.82;8.70;;;;;;;;;;5073779;28;20289;-29
2024/01/29 12:09:10;;;;;;;15.90;8.77;;;;;;;;;;5072857;28;20503;-28
2024/01/29 12:11:35;;;;;;;17.25;9.23;;;;;;;;;;5073137;28;20024;-29
2024/01/29 12:14:00;;;;;;;15.63;9.60;;;;;;;;;;5072996;28;20017;-28
2024/01/29 12:16:26;;;;;;;15.17;9.70;;;;;;;;;;5074338;28;20338;-28
2024/01/29 12:18:51;;;;;;;14.60;9.50;;;;;;;;;;5074268;28;20025;-28
2024/01/29 12:21:17;;;;;;;15.45;9.40;;;;;;;;;;5074056;28;20020;-28
2024/01/29 12:23:42;;;;;;;16.40;9.20;;;;;;;;;;5073755;28;20070;-29
2024/01/29 12:26:07;;;;;;;13.85;8.73;;;;;;;;;;5073654;28;20375;-29
2024/01/29 12:28:33;;;;;;;15.13;9.50;;;;;;;;;;5073691;28;20435;-29
2024/01/29 12:31:01;;;;;;;15.07;8.85;;;;;;;;;;5073673;28;20139;-29
2024/01/29 12:33:29;;;;;;;17.42;9.32;;;;;;;;;;5073533;28;20048;-29
2024/01/29 12:35:55;;;;;;;15.35;8.23;;;;;;;;;;5073618;28;20091;-29
2024/01/29 12:38:23;;;;;;;16.92;9.10;;;;;;;;;;5073532;28;20082;-29
2024/01/29 12:40:53;;;;;;;12.73;8.52;;;;;;;;;;5073761;28;20017;-29
2024/01/29 12:43:25;;;;;;;17.95;8.70;;;;;;;;;;5073790;28;20078;-29
2024/01/29 12:45:50;;;;;;;15.98;8.88;;;;;;;;;;5073447;28;20016;-29
2024/01/29 12:48:19;;;;;;;12.53;8.30;;;;;;;;;;5073475;28;20015;-29
2024/01/29 12:50:45;;;;;;;12.68;8.52;;;;;;;;;;5073731;28;20021;-29
2024/01/29 12:53:10;;;;;;;14.05;8.57;;;;;;;;;;5073543;28;20073;-28
2024/01/29 12:55:36;;;;;;;15.15;8.30;;;;;;;;;;5073914;28;20022;-29
2024/01/29 12:58:02;;;;;;;15.40;9.30;;;;;;;;;;5073340;28;20108;-28
2024/01/29 13:00:27;;;;;;;14.52;8.65;;;;;;;;;;5073538;28;20020;-28
2024/01/29 13:02:52;;;;;;;12.67;8.40;;;;;;;;;;5073126;28;20048;-29
2024/01/29 13:05:18;;;;;;;13.50;9.07;;;;;;;;;;5073867;28;20020;-28
2024/01/29 13:07:43;;;;;;;16.25;8.85;;;;;;;;;;5073415;28;20048;-28
2024/01/29 13:10:08;;;;;;;13.43;8.73;;;;;;;;;;5073514;28;20370;-28
2024/01/29 13:12:33;;;;;;;13.20;9.10;;;;;;;;;;5073096;28;20016;-28
2024/01/29 13:14:59;;;;;;;18.33;9.67;;;;;;;;;;5076410;28;20043;-28
2024/01/29 13:17:28;;;;;;;17.42;8.98;;;;;;;;;;5075975;28;20029;-28
2024/01/29 13:19:56;;;;;;;18.58;9.35;;;;;;;;;;5077484;28;20027;-28
2024/01/29 13:22:21;;;;;;;19.33;9.15;;;;;;;;;;5077295;28;20020;-28
2024/01/29 13:24:47;;;;;;;14.85;9.18;;;;;;;;;;5077150;28;20028;-28
2024/01/29 13:27:13;;;;;;;15.88;9.13;;;;;;;;;;5077299;28;20024;-29
2024/01/29 13:29:38;;;;;;;15.90;9.43;;;;;;;;;;5076939;28;20020;-28
2024/01/29 13:32:03;;;;;;;14.83;8.90;;;;;;;;;;5076391;28;20486;-29
2024/01/29 13:34:29;;;;;;;17.65;9.52;;;;;;;;;;5076493;28;20074;-28
2024/01/29 13:36:55;;;;;;;19.13;9.82;;;;;;;;;;5076774;28;20103;-28
2024/01/29 13:39:20;;;;;;;15.43;9.18;;;;;;;;;;5075769;28;20021;-28
2024/01/29 13:41:46;;;;;;;22.53;9.57;;;;;;;;;;5076779;28;20081;-30
2024/01/29 13:44:11;;;;;;;19.30;9.37;;;;;;;;;;5075321;28;20353;-28
2024/01/29 13:46:36;;;;;;;19.23;10.40;;;;;;;;;;5076772;28;20122;-28
2024/01/29 13:49:02;;;;;;;18.60;9.70;;;;;;;;;;5076614;28;20610;-28
2024/01/29 13:51:27;;;;;;;15.65;9.50;;;;;;;;;;5076822;28;20048;-27
2024/01/29 13:53:52;;;;;;;14.70;9.40;;;;;;;;;;5076542;28;20412;-27
2024/01/29 13:56:20;;;;;;;17.43;9.60;;;;;;;;;;5076463;28;20257;-28
2024/01/29 13:58:45;;;;;;;15.95;9.48;;;;;;;;;;5076368;28;20294;-28
2024/01/29 14:01:11;;;;;;;15.23;9.50;;;;;;;;;;5076628;28;20017;-28
2024/01/29 14:03:36;;;;;;;16.98;9.40;;;;;;;;;;5076161;28;20850;-28
2024/01/29 14:06:02;;;;;;;17.73;9.90;;;;;;;;;;5076666;28;20029;-28
2024/01/29 14:08:28;;;;;;;19.10;9.43;;;;;;;;;;5076183;28;20028;-28
2024/01/29 14:10:53;;;;;;;17.15;9.88;;;;;;;;;;5076187;28;20017;-28
2024/01/29 14:13:18;;;;;;;18.60;9.43;;;;;;;;;;5076095;28;20020;-28
2024/01/29 14:15:43;;;;;;;17.83;9.93;;;;;;;;;;5076319;28;20027;-28
2024/01/29 14:18:09;;;;;;;15.10;9.25;;;;;;;;;;5076279;28;20078;-28
2024/01/29 14:20:34;;;;;;;18.70;9.70;;;;;;;;;;5076361;28;20062;-28